sensor_id;sensor_type;location;lat;lon;timestamp;temperature;humidity
18823;DHT22;9540;51.550;7.980;2023-02-16T00:01:45;6.60;99.90
18823;DHT22;9540;51.550;7.980;2023-02-16T00:04:17;6.70;99.90
18823;DHT22;9540;51.550;7.980;2023-02-16T00:06:45;6.60;99.90
18823;DHT22;9540;51.550;7.980;2023-02-16T00:09:13;6.60;99.90
18823;DHT22;9540;51.550;7.980;2023-02-16T00:11:40;6.50;99.90
18823;DHT22;9540;51.550;7.980;2023-02-16T00:14:26;6.50;99.90
18823;DHT22;9540;51.550;7.980;2023-02-16T00:16:55;6.40;99.90
18823;DHT22;9540;51.550;7.980;2023-02-16T00:19:24;6.30;99.90
18823;DHT22;9540;51.550;7.980;2023-02-16T00:21:56;6.30;99.90
18823;DHT22;9540;51.550;7.980;2023-02-16T00:24:25;6.30;99.90
18823;DHT22;9540;51.550;7.980;2023-02-16T00:26:53;6.20;99.90
18823;DHT22;9540;51.550;7.980;2023-02-16T00:29:24;6.20;99.90
18823;DHT22;9540;51.550;7.980;2023-02-16T00:31:54;6.10;99.90
18823;DHT22;9540;51.550;7.980;2023-02-16T00:34:29;6.10;99.90
18823;DHT22;9540;51.550;7.980;2023-02-16T00:37:00;6.10;99.90
18823;DHT22;9540;51.550;7.980;2023-02-16T00:39:29;6.20;99.90
18823;DHT22;9540;51.550;7.980;2023-02-16T00:41:59;6.10;99.90
18823;DHT22;9540;51.550;7.980;2023-02-16T00:44:32;6.10;99.90
18823;DHT22;9540;51.550;7.980;2023-02-16T00:47:02;6.00;99.90
18823;DHT22;9540;51.550;7.980;2023-02-16T00:49:29;5.90;99.90
18823;DHT22;9540;51.550;7.980;2023-02-16T00:51:58;5.90;99.90
18823;DHT22;9540;51.550;7.980;2023-02-16T00:54:24;5.90;99.90
18823;DHT22;9540;51.550;7.980;2023-02-16T00:56:51;5.80;99.90
18823;DHT22;9540;51.550;7.980;2023-02-16T00:59:19;5.80;99.90
18823;DHT22;9540;51.550;7.980;2023-02-16T01:01:48;5.80;99.90
18823;DHT22;9540;51.550;7.980;2023-02-16T01:04:19;5.80;99.90
18823;DHT22;9540;51.550;7.980;2023-02-16T01:06:46;5.80;99.90
18823;DHT22;9540;51.550;7.980;2023-02-16T01:09:32;5.70;99.90
18823;DHT22;9540;51.550;7.980;2023-02-16T01:12:18;5.60;99.90
18823;DHT22;9540;51.550;7.980;2023-02-16T01:14:50;5.60;99.90
18823;DHT22;9540;51.550;7.980;2023-02-16T01:17:17;5.50;99.90
18823;DHT22;9540;51.550;7.980;2023-02-16T01:19:44;5.40;99.90
18823;DHT22;9540;51.550;7.980;2023-02-16T01:22:11;5.30;99.90
18823;DHT22;9540;51.550;7.980;2023-02-16T01:24:40;5.20;99.90
18823;DHT22;9540;51.550;7.980;2023-02-16T01:27:09;5.20;99.90
18823;DHT22;9540;51.550;7.980;2023-02-16T01:29:36;5.20;99.90
18823;DHT22;9540;51.550;7.980;2023-02-16T01:32:04;5.20;99.90
18823;DHT22;9540;51.550;7.980;2023-02-16T01:34:31;5.30;99.90
18823;DHT22;9540;51.550;7.980;2023-02-16T01:36:58;5.20;99.90
18823;DHT22;9540;51.550;7.980;2023-02-16T01:39:25;5.10;99.90
18823;DHT22;9540;51.550;7.980;2023-02-16T01:42:10;5.10;99.90
18823;DHT22;9540;51.550;7.980;2023-02-16T01:44:43;5.20;99.90
18823;DHT22;9540;51.550;7.980;2023-02-16T01:47:23;5.20;99.90
18823;DHT22;9540;51.550;7.980;2023-02-16T01:49:52;5.20;99.90
18823;DHT22;9540;51.550;7.980;2023-02-16T01:52:25;5.20;99.90
18823;DHT22;9540;51.550;7.980;2023-02-16T01:54:58;5.30;99.90
18823;DHT22;9540;51.550;7.980;2023-02-16T01:57:36;5.20;99.90
18823;DHT22;9540;51.550;7.980;2023-02-16T02:00:18;5.10;99.90
18823;DHT22;9540;51.550;7.980;2023-02-16T02:02:50;5.10;99.90
18823;DHT22;9540;51.550;7.980;2023-02-16T02:05:21;5.00;99.90
18823;DHT22;9540;51.550;7.980;2023-02-16T02:08:06;5.00;99.90
18823;DHT22;9540;51.550;7.980;2023-02-16T02:10:44;4.90;99.90
18823;DHT22;9540;51.550;7.980;2023-02-16T02:13:21;4.90;99.90
18823;DHT22;9540;51.550;7.980;2023-02-16T02:15:52;5.00;99.90
18823;DHT22;9540;51.550;7.980;2023-02-16T02:18:19;5.00;99.90
18823;DHT22;9540;51.550;7.980;2023-02-16T02:21:03;4.90;99.90
18823;DHT22;9540;51.550;7.980;2023-02-16T02:24:28;4.70;99.90
18823;DHT22;9540;51.550;7.980;2023-02-16T02:27:17;4.50;99.90
18823;DHT22;9540;51.550;7.980;2023-02-16T02:30:04;4.30;99.90
18823;DHT22;9540;51.550;7.980;2023-02-16T02:32:45;4.10;99.90
18823;DHT22;9540;51.550;7.980;2023-02-16T02:35:31;3.90;99.90
18823;DHT22;9540;51.550;7.980;2023-02-16T02:38:04;3.80;99.90
18823;DHT22;9540;51.550;7.980;2023-02-16T02:40:40;3.70;99.90
18823;DHT22;9540;51.550;7.980;2023-02-16T02:43:18;3.60;99.90
18823;DHT22;9540;51.550;7.980;2023-02-16T02:45:48;3.50;99.90
18823;DHT22;9540;51.550;7.980;2023-02-16T02:48:16;3.30;99.90
18823;DHT22;9540;51.550;7.980;2023-02-16T02:50:47;3.20;99.90
18823;DHT22;9540;51.550;7.980;2023-02-16T02:53:35;3.00;99.90
18823;DHT22;9540;51.550;7.980;2023-02-16T02:56:04;2.90;99.90
18823;DHT22;9540;51.550;7.980;2023-02-16T02:58:55;2.70;99.90
18823;DHT22;9540;51.550;7.980;2023-02-16T03:01:43;2.70;99.90
18823;DHT22;9540;51.550;7.980;2023-02-16T03:04:13;3.00;99.90
18823;DHT22;9540;51.550;7.980;2023-02-16T03:06:45;3.20;99.90
18823;DHT22;9540;51.550;7.980;2023-02-16T03:09:14;3.40;99.90
18823;DHT22;9540;51.550;7.980;2023-02-16T03:11:42;3.50;99.90
18823;DHT22;9540;51.550;7.980;2023-02-16T03:14:33;3.70;99.90
18823;DHT22;9540;51.550;7.980;2023-02-16T03:17:03;3.60;99.90
18823;DHT22;9540;51.550;7.980;2023-02-16T03:19:50;3.80;99.90
18823;DHT22;9540;51.550;7.980;2023-02-16T03:22:36;4.10;99.90
18823;DHT22;9540;51.550;7.980;2023-02-16T03:25:23;4.30;99.90
18823;DHT22;9540;51.550;7.980;2023-02-16T03:28:10;4.30;99.90
18823;DHT22;9540;51.550;7.980;2023-02-16T03:30:58;4.20;99.90
18823;DHT22;9540;51.550;7.980;2023-02-16T03:33:27;4.20;99.90
18823;DHT22;9540;51.550;7.980;2023-02-16T03:35:55;4.20;99.90
18823;DHT22;9540;51.550;7.980;2023-02-16T03:38:22;4.20;99.90
18823;DHT22;9540;51.550;7.980;2023-02-16T03:40:51;4.10;99.90
18823;DHT22;9540;51.550;7.980;2023-02-16T03:43:18;4.00;99.90
18823;DHT22;9540;51.550;7.980;2023-02-16T03:45:45;3.90;99.90
18823;DHT22;9540;51.550;7.980;2023-02-16T03:48:13;3.90;99.90
18823;DHT22;9540;51.550;7.980;2023-02-16T03:50:40;4.00;99.90
18823;DHT22;9540;51.550;7.980;2023-02-16T03:53:07;4.00;99.90
18823;DHT22;9540;51.550;7.980;2023-02-16T03:55:35;4.00;99.90
18823;DHT22;9540;51.550;7.980;2023-02-16T03:58:03;4.10;99.90
18823;DHT22;9540;51.550;7.980;2023-02-16T04:00:30;4.10;99.90
18823;DHT22;9540;51.550;7.980;2023-02-16T04:02:58;4.00;99.90
18823;DHT22;9540;51.550;7.980;2023-02-16T04:05:27;4.00;99.90
18823;DHT22;9540;51.550;7.980;2023-02-16T04:07:54;4.00;99.90
18823;DHT22;9540;51.550;7.980;2023-02-16T04:10:21;4.00;99.90
18823;DHT22;9540;51.550;7.980;2023-02-16T04:12:48;4.00;99.90
18823;DHT22;9540;51.550;7.980;2023-02-16T04:15:16;4.10;99.90
18823;DHT22;9540;51.550;7.980;2023-02-16T04:17:44;4.10;99.90
18823;DHT22;9540;51.550;7.980;2023-02-16T04:20:13;4.10;99.90
18823;DHT22;9540;51.550;7.980;2023-02-16T04:22:43;4.10;99.90
18823;DHT22;9540;51.550;7.980;2023-02-16T04:25:11;4.20;99.90
18823;DHT22;9540;51.550;7.980;2023-02-16T04:27:38;4.30;99.90
18823;DHT22;9540;51.550;7.980;2023-02-16T04:30:10;4.30;99.90
18823;DHT22;9540;51.550;7.980;2023-02-16T04:32:38;4.40;99.90
18823;DHT22;9540;51.550;7.980;2023-02-16T04:35:06;4.30;99.90
18823;DHT22;9540;51.550;7.980;2023-02-16T04:37:33;4.30;99.90
18823;DHT22;9540;51.550;7.980;2023-02-16T04:40:03;4.30;99.90
18823;DHT22;9540;51.550;7.980;2023-02-16T04:42:30;4.30;99.90
18823;DHT22;9540;51.550;7.980;2023-02-16T04:44:57;4.40;99.90
18823;DHT22;9540;51.550;7.980;2023-02-16T04:47:24;4.40;99.90
18823;DHT22;9540;51.550;7.980;2023-02-16T04:49:51;4.40;99.90
18823;DHT22;9540;51.550;7.980;2023-02-16T04:52:19;4.30;99.90
18823;DHT22;9540;51.550;7.980;2023-02-16T04:54:46;4.20;99.90
18823;DHT22;9540;51.550;7.980;2023-02-16T04:57:14;4.10;99.90
18823;DHT22;9540;51.550;7.980;2023-02-16T04:59:41;4.20;99.90
18823;DHT22;9540;51.550;7.980;2023-02-16T05:02:08;4.20;99.90
18823;DHT22;9540;51.550;7.980;2023-02-16T05:04:36;4.20;99.90
18823;DHT22;9540;51.550;7.980;2023-02-16T05:07:03;4.30;99.90
18823;DHT22;9540;51.550;7.980;2023-02-16T05:09:29;4.30;99.90
18823;DHT22;9540;51.550;7.980;2023-02-16T05:11:56;4.30;99.90
18823;DHT22;9540;51.550;7.980;2023-02-16T05:14:42;4.40;99.90
18823;DHT22;9540;51.550;7.980;2023-02-16T05:17:12;4.30;99.90
18823;DHT22;9540;51.550;7.980;2023-02-16T05:19:40;4.30;99.90
18823;DHT22;9540;51.550;7.980;2023-02-16T05:22:09;4.30;99.90
18823;DHT22;9540;51.550;7.980;2023-02-16T05:24:36;4.30;99.90
18823;DHT22;9540;51.550;7.980;2023-02-16T05:27:05;4.30;99.90
18823;DHT22;9540;51.550;7.980;2023-02-16T05:29:32;4.30;99.90
18823;DHT22;9540;51.550;7.980;2023-02-16T05:32:01;4.40;99.90
18823;DHT22;9540;51.550;7.980;2023-02-16T05:34:28;4.30;99.90
18823;DHT22;9540;51.550;7.980;2023-02-16T05:36:55;4.40;99.90
18823;DHT22;9540;51.550;7.980;2023-02-16T05:39:22;4.30;99.90
18823;DHT22;9540;51.550;7.980;2023-02-16T05:41:49;4.30;99.90
18823;DHT22;9540;51.550;7.980;2023-02-16T05:44:16;4.20;99.90
18823;DHT22;9540;51.550;7.980;2023-02-16T05:46:44;4.20;99.90
18823;DHT22;9540;51.550;7.980;2023-02-16T05:49:14;4.30;99.90
18823;DHT22;9540;51.550;7.980;2023-02-16T05:51:41;4.40;99.90
18823;DHT22;9540;51.550;7.980;2023-02-16T05:54:08;4.30;99.90
18823;DHT22;9540;51.550;7.980;2023-02-16T05:56:42;4.30;99.90
18823;DHT22;9540;51.550;7.980;2023-02-16T05:59:09;4.30;99.90
18823;DHT22;9540;51.550;7.980;2023-02-16T06:01:36;4.30;99.90
18823;DHT22;9540;51.550;7.980;2023-02-16T06:04:06;4.20;99.90
18823;DHT22;9540;51.550;7.980;2023-02-16T06:06:34;4.30;99.90
18823;DHT22;9540;51.550;7.980;2023-02-16T06:09:02;4.30;99.90
18823;DHT22;9540;51.550;7.980;2023-02-16T06:11:29;4.30;99.90
18823;DHT22;9540;51.550;7.980;2023-02-16T06:14:04;4.20;99.90
18823;DHT22;9540;51.550;7.980;2023-02-16T06:16:32;4.30;99.90
18823;DHT22;9540;51.550;7.980;2023-02-16T06:19:00;4.30;99.90
18823;DHT22;9540;51.550;7.980;2023-02-16T06:21:28;4.30;99.90
18823;DHT22;9540;51.550;7.980;2023-02-16T06:23:56;4.20;99.90
18823;DHT22;9540;51.550;7.980;2023-02-16T06:26:24;4.20;99.90
18823;DHT22;9540;51.550;7.980;2023-02-16T06:28:52;4.20;99.90
18823;DHT22;9540;51.550;7.980;2023-02-16T06:31:19;4.30;99.90
18823;DHT22;9540;51.550;7.980;2023-02-16T06:33:47;4.30;99.90
18823;DHT22;9540;51.550;7.980;2023-02-16T06:36:14;4.30;99.90
18823;DHT22;9540;51.550;7.980;2023-02-16T06:38:42;4.30;99.90
18823;DHT22;9540;51.550;7.980;2023-02-16T06:41:10;4.30;99.90
18823;DHT22;9540;51.550;7.980;2023-02-16T06:43:38;4.30;99.90
18823;DHT22;9540;51.550;7.980;2023-02-16T06:46:05;4.20;99.90
18823;DHT22;9540;51.550;7.980;2023-02-16T06:48:32;4.20;99.90
18823;DHT22;9540;51.550;7.980;2023-02-16T06:50:59;4.20;99.90
18823;DHT22;9540;51.550;7.980;2023-02-16T06:53:26;4.20;99.90
18823;DHT22;9540;51.550;7.980;2023-02-16T06:55:53;4.20;99.90
18823;DHT22;9540;51.550;7.980;2023-02-16T06:58:22;4.20;99.90
18823;DHT22;9540;51.550;7.980;2023-02-16T07:00:49;4.30;99.90
18823;DHT22;9540;51.550;7.980;2023-02-16T07:03:15;4.40;99.90
18823;DHT22;9540;51.550;7.980;2023-02-16T07:05:42;4.60;99.90
18823;DHT22;9540;51.550;7.980;2023-02-16T07:08:10;4.80;99.90
18823;DHT22;9540;51.550;7.980;2023-02-16T07:10:40;4.90;99.90
18823;DHT22;9540;51.550;7.980;2023-02-16T07:13:08;5.10;99.90
18823;DHT22;9540;51.550;7.980;2023-02-16T07:15:36;5.30;99.90
18823;DHT22;9540;51.550;7.980;2023-02-16T07:18:03;5.40;99.90
18823;DHT22;9540;51.550;7.980;2023-02-16T07:20:30;5.60;99.90
18823;DHT22;9540;51.550;7.980;2023-02-16T07:22:57;5.70;99.90
18823;DHT22;9540;51.550;7.980;2023-02-16T07:25:24;5.80;99.90
18823;DHT22;9540;51.550;7.980;2023-02-16T07:27:51;5.90;99.90
18823;DHT22;9540;51.550;7.980;2023-02-16T07:30:19;6.00;99.90
18823;DHT22;9540;51.550;7.980;2023-02-16T07:32:47;6.30;99.90
18823;DHT22;9540;51.550;7.980;2023-02-16T07:35:14;6.50;99.90
18823;DHT22;9540;51.550;7.980;2023-02-16T07:37:41;6.80;99.90
18823;DHT22;9540;51.550;7.980;2023-02-16T07:40:09;7.00;99.90
18823;DHT22;9540;51.550;7.980;2023-02-16T07:42:36;7.00;99.90
18823;DHT22;9540;51.550;7.980;2023-02-16T07:45:04;6.90;99.90
18823;DHT22;9540;51.550;7.980;2023-02-16T07:47:31;6.70;99.90
18823;DHT22;9540;51.550;7.980;2023-02-16T07:49:59;6.50;99.90
18823;DHT22;9540;51.550;7.980;2023-02-16T07:52:26;6.40;99.90
18823;DHT22;9540;51.550;7.980;2023-02-16T07:54:55;6.40;99.90
18823;DHT22;9540;51.550;7.980;2023-02-16T07:57:23;6.40;99.90
18823;DHT22;9540;51.550;7.980;2023-02-16T07:59:50;6.40;99.90
18823;DHT22;9540;51.550;7.980;2023-02-16T08:02:18;6.50;99.90
18823;DHT22;9540;51.550;7.980;2023-02-16T08:04:46;6.50;99.90
18823;DHT22;9540;51.550;7.980;2023-02-16T08:07:15;6.60;99.90
18823;DHT22;9540;51.550;7.980;2023-02-16T08:09:43;6.50;99.90
18823;DHT22;9540;51.550;7.980;2023-02-16T08:12:12;6.60;99.90
18823;DHT22;9540;51.550;7.980;2023-02-16T08:14:39;6.60;99.90
18823;DHT22;9540;51.550;7.980;2023-02-16T08:17:07;6.70;99.90
18823;DHT22;9540;51.550;7.980;2023-02-16T08:19:34;6.70;99.90
18823;DHT22;9540;51.550;7.980;2023-02-16T08:22:03;6.70;99.90
18823;DHT22;9540;51.550;7.980;2023-02-16T08:24:32;6.80;99.90
18823;DHT22;9540;51.550;7.980;2023-02-16T08:27:00;6.80;99.90
18823;DHT22;9540;51.550;7.980;2023-02-16T08:29:28;6.90;99.90
18823;DHT22;9540;51.550;7.980;2023-02-16T08:31:56;7.00;99.90
18823;DHT22;9540;51.550;7.980;2023-02-16T08:34:24;7.00;99.90
18823;DHT22;9540;51.550;7.980;2023-02-16T08:36:52;7.00;99.90
18823;DHT22;9540;51.550;7.980;2023-02-16T08:39:22;7.10;99.90
18823;DHT22;9540;51.550;7.980;2023-02-16T08:41:51;7.20;99.90
18823;DHT22;9540;51.550;7.980;2023-02-16T08:44:19;7.30;99.90
18823;DHT22;9540;51.550;7.980;2023-02-16T08:46:49;7.40;99.90
18823;DHT22;9540;51.550;7.980;2023-02-16T08:49:18;7.50;99.90
18823;DHT22;9540;51.550;7.980;2023-02-16T08:51:48;7.70;99.90
18823;DHT22;9540;51.550;7.980;2023-02-16T08:54:17;7.80;99.90
18823;DHT22;9540;51.550;7.980;2023-02-16T08:56:45;7.90;99.90
18823;DHT22;9540;51.550;7.980;2023-02-16T08:59:16;8.00;99.90
18823;DHT22;9540;51.550;7.980;2023-02-16T09:01:44;8.10;99.90
18823;DHT22;9540;51.550;7.980;2023-02-16T09:04:11;8.10;99.90
18823;DHT22;9540;51.550;7.980;2023-02-16T09:06:41;8.10;99.90
18823;DHT22;9540;51.550;7.980;2023-02-16T09:09:09;8.10;99.90
18823;DHT22;9540;51.550;7.980;2023-02-16T09:11:36;8.00;99.90
18823;DHT22;9540;51.550;7.980;2023-02-16T09:14:03;8.00;99.90
18823;DHT22;9540;51.550;7.980;2023-02-16T09:16:32;8.00;99.90
18823;DHT22;9540;51.550;7.980;2023-02-16T09:19:02;8.10;99.90
18823;DHT22;9540;51.550;7.980;2023-02-16T09:21:30;8.20;99.90
18823;DHT22;9540;51.550;7.980;2023-02-16T09:23:59;8.40;99.90
18823;DHT22;9540;51.550;7.980;2023-02-16T09:26:28;8.40;99.90
18823;DHT22;9540;51.550;7.980;2023-02-16T09:28:56;8.60;99.90
18823;DHT22;9540;51.550;7.980;2023-02-16T09:31:25;8.60;99.90
18823;DHT22;9540;51.550;7.980;2023-02-16T09:33:55;8.80;99.90
18823;DHT22;9540;51.550;7.980;2023-02-16T09:36:23;8.80;99.90
18823;DHT22;9540;51.550;7.980;2023-02-16T09:38:50;8.90;99.90
18823;DHT22;9540;51.550;7.980;2023-02-16T09:41:25;8.90;99.90
18823;DHT22;9540;51.550;7.980;2023-02-16T09:43:57;9.00;99.90
18823;DHT22;9540;51.550;7.980;2023-02-16T09:46:25;9.20;99.90
18823;DHT22;9540;51.550;7.980;2023-02-16T09:48:56;9.20;99.90
18823;DHT22;9540;51.550;7.980;2023-02-16T09:51:26;9.30;99.90
18823;DHT22;9540;51.550;7.980;2023-02-16T09:53:59;9.30;99.90
18823;DHT22;9540;51.550;7.980;2023-02-16T09:56:32;9.40;99.90
18823;DHT22;9540;51.550;7.980;2023-02-16T09:59:04;9.50;99.90
18823;DHT22;9540;51.550;7.980;2023-02-16T10:01:38;9.40;99.90
18823;DHT22;9540;51.550;7.980;2023-02-16T10:04:21;9.50;99.90
18823;DHT22;9540;51.550;7.980;2023-02-16T10:06:55;9.70;99.90
18823;DHT22;9540;51.550;7.980;2023-02-16T10:09:27;9.80;99.90
18823;DHT22;9540;51.550;7.980;2023-02-16T10:11:57;10.10;99.90
18823;DHT22;9540;51.550;7.980;2023-02-16T10:14:32;10.00;99.90
18823;DHT22;9540;51.550;7.980;2023-02-16T10:17:11;10.30;99.90
18823;DHT22;9540;51.550;7.980;2023-02-16T10:19:47;11.30;99.90
18823;DHT22;9540;51.550;7.980;2023-02-16T10:22:19;12.30;99.90
18823;DHT22;9540;51.550;7.980;2023-02-16T10:24:57;13.00;99.90
18823;DHT22;9540;51.550;7.980;2023-02-16T10:27:30;13.00;99.90
18823;DHT22;9540;51.550;7.980;2023-02-16T10:29:58;12.80;99.90
18823;DHT22;9540;51.550;7.980;2023-02-16T10:32:26;12.80;99.90
18823;DHT22;9540;51.550;7.980;2023-02-16T10:35:05;12.70;99.90
18823;DHT22;9540;51.550;7.980;2023-02-16T10:37:50;12.50;99.90
18823;DHT22;9540;51.550;7.980;2023-02-16T10:40:32;12.20;99.90
18823;DHT22;9540;51.550;7.980;2023-02-16T10:43:05;12.10;99.90
18823;DHT22;9540;51.550;7.980;2023-02-16T10:45:39;11.90;99.90
18823;DHT22;9540;51.550;7.980;2023-02-16T10:48:09;11.70;99.90
18823;DHT22;9540;51.550;7.980;2023-02-16T10:50:41;11.60;99.90
18823;DHT22;9540;51.550;7.980;2023-02-16T10:53:12;11.60;99.90
18823;DHT22;9540;51.550;7.980;2023-02-16T10:55:40;11.50;99.90
18823;DHT22;9540;51.550;7.980;2023-02-16T10:58:16;11.50;99.90
18823;DHT22;9540;51.550;7.980;2023-02-16T11:00:51;11.50;99.90
18823;DHT22;9540;51.550;7.980;2023-02-16T11:03:25;11.50;99.90
18823;DHT22;9540;51.550;7.980;2023-02-16T11:05:55;11.60;99.90
18823;DHT22;9540;51.550;7.980;2023-02-16T11:08:22;11.60;99.90
18823;DHT22;9540;51.550;7.980;2023-02-16T11:10:52;11.60;99.90
18823;DHT22;9540;51.550;7.980;2023-02-16T11:13:28;11.70;99.90
18823;DHT22;9540;51.550;7.980;2023-02-16T11:15:57;11.40;99.90
18823;DHT22;9540;51.550;7.980;2023-02-16T11:18:32;11.30;99.90
18823;DHT22;9540;51.550;7.980;2023-02-16T11:21:03;11.20;99.90
18823;DHT22;9540;51.550;7.980;2023-02-16T11:23:32;11.00;99.90
18823;DHT22;9540;51.550;7.980;2023-02-16T11:26:02;10.90;99.90
18823;DHT22;9540;51.550;7.980;2023-02-16T11:28:33;10.80;99.90
18823;DHT22;9540;51.550;7.980;2023-02-16T11:31:25;10.80;99.90
18823;DHT22;9540;51.550;7.980;2023-02-16T11:33:56;10.70;99.90
18823;DHT22;9540;51.550;7.980;2023-02-16T11:36:31;10.60;99.90
18823;DHT22;9540;51.550;7.980;2023-02-16T11:39:01;10.60;99.90
18823;DHT22;9540;51.550;7.980;2023-02-16T11:41:29;10.50;99.90
18823;DHT22;9540;51.550;7.980;2023-02-16T11:43:58;10.40;99.90
18823;DHT22;9540;51.550;7.980;2023-02-16T11:46:27;10.30;99.90
18823;DHT22;9540;51.550;7.980;2023-02-16T11:48:55;10.30;99.90
18823;DHT22;9540;51.550;7.980;2023-02-16T11:51:32;10.40;99.90
18823;DHT22;9540;51.550;7.980;2023-02-16T11:54:02;10.40;99.90
18823;DHT22;9540;51.550;7.980;2023-02-16T11:56:31;10.50;99.90
18823;DHT22;9540;51.550;7.980;2023-02-16T11:59:10;10.70;99.90
18823;DHT22;9540;51.550;7.980;2023-02-16T12:01:56;10.90;99.90
18823;DHT22;9540;51.550;7.980;2023-02-16T12:04:40;11.10;99.90
18823;DHT22;9540;51.550;7.980;2023-02-16T12:07:18;11.30;99.90
18823;DHT22;9540;51.550;7.980;2023-02-16T12:09:52;11.30;99.90
18823;DHT22;9540;51.550;7.980;2023-02-16T12:12:32;11.50;99.90
18823;DHT22;9540;51.550;7.980;2023-02-16T12:15:09;11.50;99.90
18823;DHT22;9540;51.550;7.980;2023-02-16T12:17:55;11.70;99.90
18823;DHT22;9540;51.550;7.980;2023-02-16T12:20:35;11.80;99.90
18823;DHT22;9540;51.550;7.980;2023-02-16T12:23:21;11.90;99.90
18823;DHT22;9540;51.550;7.980;2023-02-16T12:26:06;11.70;99.90
18823;DHT22;9540;51.550;7.980;2023-02-16T12:28:41;11.60;99.90
18823;DHT22;9540;51.550;7.980;2023-02-16T12:31:18;11.70;99.90
18823;DHT22;9540;51.550;7.980;2023-02-16T12:33:52;11.90;99.90
18823;DHT22;9540;51.550;7.980;2023-02-16T12:36:44;12.30;99.90
18823;DHT22;9540;51.550;7.980;2023-02-16T12:39:18;12.40;99.90
18823;DHT22;9540;51.550;7.980;2023-02-16T12:42:15;12.10;99.90
18823;DHT22;9540;51.550;7.980;2023-02-16T12:44:49;11.70;99.90
18823;DHT22;9540;51.550;7.980;2023-02-16T12:47:20;11.50;99.90
18823;DHT22;9540;51.550;7.980;2023-02-16T12:49:52;11.30;99.90
18823;DHT22;9540;51.550;7.980;2023-02-16T12:52:29;11.20;99.90
18823;DHT22;9540;51.550;7.980;2023-02-16T12:55:09;11.10;99.90
18823;DHT22;9540;51.550;7.980;2023-02-16T12:57:44;11.10;99.90
18823;DHT22;9540;51.550;7.980;2023-02-16T13:00:15;11.10;99.90
18823;DHT22;9540;51.550;7.980;2023-02-16T13:02:47;11.10;99.90
18823;DHT22;9540;51.550;7.980;2023-02-16T13:05:19;11.00;99.90
18823;DHT22;9540;51.550;7.980;2023-02-16T13:07:50;10.90;99.90
18823;DHT22;9540;51.550;7.980;2023-02-16T13:10:25;10.90;99.90
18823;DHT22;9540;51.550;7.980;2023-02-16T13:12:56;10.80;99.90
18823;DHT22;9540;51.550;7.980;2023-02-16T13:15:35;10.80;99.90
18823;DHT22;9540;51.550;7.980;2023-02-16T13:18:04;10.80;99.90
18823;DHT22;9540;51.550;7.980;2023-02-16T13:20:32;10.70;99.90
18823;DHT22;9540;51.550;7.980;2023-02-16T13:23:29;10.60;99.90
18823;DHT22;9540;51.550;7.980;2023-02-16T13:26:11;10.40;99.90
18823;DHT22;9540;51.550;7.980;2023-02-16T13:29:05;10.30;99.90
18823;DHT22;9540;51.550;7.980;2023-02-16T13:31:48;10.20;99.90
18823;DHT22;9540;51.550;7.980;2023-02-16T13:35:07;10.20;99.90
18823;DHT22;9540;51.550;7.980;2023-02-16T13:38:00;10.20;99.90
18823;DHT22;9540;51.550;7.980;2023-02-16T13:40:57;10.30;99.90
18823;DHT22;9540;51.550;7.980;2023-02-16T13:43:39;10.40;99.90
18823;DHT22;9540;51.550;7.980;2023-02-16T13:46:25;10.40;99.90
18823;DHT22;9540;51.550;7.980;2023-02-16T13:48:53;10.40;99.90
18823;DHT22;9540;51.550;7.980;2023-02-16T13:51:21;10.40;99.90
18823;DHT22;9540;51.550;7.980;2023-02-16T13:53:52;10.50;99.90
18823;DHT22;9540;51.550;7.980;2023-02-16T13:56:30;10.50;99.90
18823;DHT22;9540;51.550;7.980;2023-02-16T14:05:27;11.10;99.90
18823;DHT22;9540;51.550;7.980;2023-02-16T14:08:12;11.30;99.90
18823;DHT22;9540;51.550;7.980;2023-02-16T14:11:07;11.40;99.90
18823;DHT22;9540;51.550;7.980;2023-02-16T14:13:48;11.50;99.90
18823;DHT22;9540;51.550;7.980;2023-02-16T14:16:29;11.40;99.90
18823;DHT22;9540;51.550;7.980;2023-02-16T14:19:00;11.30;99.90
18823;DHT22;9540;51.550;7.980;2023-02-16T14:21:35;11.30;99.90
18823;DHT22;9540;51.550;7.980;2023-02-16T14:24:04;11.20;99.90
18823;DHT22;9540;51.550;7.980;2023-02-16T14:26:50;11.30;99.90
18823;DHT22;9540;51.550;7.980;2023-02-16T14:29:20;11.20;99.90
18823;DHT22;9540;51.550;7.980;2023-02-16T14:31:56;11.30;99.90
18823;DHT22;9540;51.550;7.980;2023-02-16T14:34:27;11.50;99.90
18823;DHT22;9540;51.550;7.980;2023-02-16T14:37:29;11.50;99.90
18823;DHT22;9540;51.550;7.980;2023-02-16T14:40:10;11.40;99.90
18823;DHT22;9540;51.550;7.980;2023-02-16T14:42:45;11.30;99.90
18823;DHT22;9540;51.550;7.980;2023-02-16T14:45:47;11.10;99.90
18823;DHT22;9540;51.550;7.980;2023-02-16T14:51:57;10.90;99.90
18823;DHT22;9540;51.550;7.980;2023-02-16T14:54:55;10.90;99.90
18823;DHT22;9540;51.550;7.980;2023-02-16T14:57:31;10.90;99.90
18823;DHT22;9540;51.550;7.980;2023-02-16T15:00:03;10.90;99.90
18823;DHT22;9540;51.550;7.980;2023-02-16T15:02:39;10.90;99.90
18823;DHT22;9540;51.550;7.980;2023-02-16T15:05:16;10.70;99.90
18823;DHT22;9540;51.550;7.980;2023-02-16T15:07:45;10.70;99.90
18823;DHT22;9540;51.550;7.980;2023-02-16T15:10:18;10.60;99.90
18823;DHT22;9540;51.550;7.980;2023-02-16T15:12:51;10.60;99.90
18823;DHT22;9540;51.550;7.980;2023-02-16T15:15:21;10.60;99.90
18823;DHT22;9540;51.550;7.980;2023-02-16T15:17:52;10.60;99.90
18823;DHT22;9540;51.550;7.980;2023-02-16T15:20:25;10.60;99.90
18823;DHT22;9540;51.550;7.980;2023-02-16T15:22:56;10.60;99.90
18823;DHT22;9540;51.550;7.980;2023-02-16T15:25:26;10.60;99.90
18823;DHT22;9540;51.550;7.980;2023-02-16T15:27:55;10.50;99.90
18823;DHT22;9540;51.550;7.980;2023-02-16T15:30:29;10.50;99.90
18823;DHT22;9540;51.550;7.980;2023-02-16T15:32:58;10.40;99.90
18823;DHT22;9540;51.550;7.980;2023-02-16T15:35:30;10.30;99.90
18823;DHT22;9540;51.550;7.980;2023-02-16T15:38:06;10.30;99.90
18823;DHT22;9540;51.550;7.980;2023-02-16T15:40:33;10.30;99.90
18823;DHT22;9540;51.550;7.980;2023-02-16T15:43:09;10.30;99.90
18823;DHT22;9540;51.550;7.980;2023-02-16T15:45:39;10.20;99.90
18823;DHT22;9540;51.550;7.980;2023-02-16T15:48:21;10.20;99.90
18823;DHT22;9540;51.550;7.980;2023-02-16T15:50:52;10.20;99.90
18823;DHT22;9540;51.550;7.980;2023-02-16T15:53:29;10.20;99.90
18823;DHT22;9540;51.550;7.980;2023-02-16T15:55:59;10.20;99.90
18823;DHT22;9540;51.550;7.980;2023-02-16T15:58:30;10.20;99.90
18823;DHT22;9540;51.550;7.980;2023-02-16T16:00:58;10.20;99.90
18823;DHT22;9540;51.550;7.980;2023-02-16T16:03:26;10.20;99.90
18823;DHT22;9540;51.550;7.980;2023-02-16T16:05:59;10.30;99.90
18823;DHT22;9540;51.550;7.980;2023-02-16T16:08:28;10.30;99.90
18823;DHT22;9540;51.550;7.980;2023-02-16T16:10:55;10.40;99.90
18823;DHT22;9540;51.550;7.980;2023-02-16T16:13:25;10.50;99.90
18823;DHT22;9540;51.550;7.980;2023-02-16T16:15:54;10.40;99.90
18823;DHT22;9540;51.550;7.980;2023-02-16T16:18:42;10.30;99.90
18823;DHT22;9540;51.550;7.980;2023-02-16T16:21:20;10.10;99.90
18823;DHT22;9540;51.550;7.980;2023-02-16T16:23:57;10.00;99.90
18823;DHT22;9540;51.550;7.980;2023-02-16T16:26:25;10.00;99.90
18823;DHT22;9540;51.550;7.980;2023-02-16T16:28:53;9.90;99.90
18823;DHT22;9540;51.550;7.980;2023-02-16T16:31:39;9.80;99.90
18823;DHT22;9540;51.550;7.980;2023-02-16T16:34:09;9.70;99.90
18823;DHT22;9540;51.550;7.980;2023-02-16T16:36:42;9.50;99.90
18823;DHT22;9540;51.550;7.980;2023-02-16T16:39:22;9.40;99.90